Time;durP1;ratioP1;P1;durP2;ratioP2;P2;SDS_P1;SDS_P2;PMS_P1;PMS_P2;Temp;Humidity;BMP_temperature;BMP_pressure;BME280_temperature;BME280_humidity;BME280_pressure;Samples;Min_cycle;Max_cycle;Signal;HPM_P1;HPM_P2
2024/02/05 00:03:03;;;;;;;12.65;3.05;;;12.10;89.80;;;;;;9170283;19;20070;-73
2024/02/05 00:06:10;;;;;;;23.10;4.82;;;12.00;89.70;;;;;;9172369;19;20034;-73
2024/02/05 00:09:19;;;;;;;25.60;3.55;;;12.10;89.70;;;;;;9169596;19;20018;-73
2024/02/05 00:12:25;;;;;;;19.50;3.75;;;12.10;89.70;;;;;;9169442;19;20018;-72
2024/02/05 00:15:35;;;;;;;23.38;3.88;;;12.20;89.60;;;;;;9170646;19;20515;-73
2024/02/05 00:18:41;;;;;;;23.13;3.90;;;12.10;89.50;;;;;;9169281;19;20022;-73
2024/02/05 00:21:48;;;;;;;13.32;3.10;;;12.20;89.50;;;;;;9165092;19;20010;-73
2024/02/05 00:24:54;;;;;;;19.48;4.22;;;12.10;89.40;;;;;;9171318;19;20322;-73
2024/02/05 00:28:02;;;;;;;19.77;4.45;;;12.10;89.50;;;;;;9168679;19;20014;-73
2024/02/05 00:31:10;;;;;;;24.10;3.95;;;12.10;89.30;;;;;;9178476;19;20015;-73
2024/02/05 00:34:18;;;;;;;26.00;3.88;;;12.10;90.00;;;;;;9178246;19;20747;-73
2024/02/05 00:37:24;;;;;;;17.95;4.05;;;12.10;89.40;;;;;;9179118;19;20114;-73
2024/02/05 00:40:32;;;;;;;21.90;4.25;;;12.20;89.50;;;;;;9175836;19;21390;-73
2024/02/05 00:43:37;;;;;;;25.15;3.92;;;12.10;89.20;;;;;;9176407;19;20014;-73
2024/02/05 00:46:48;;;;;;;23.55;3.17;;;12.10;89.30;;;;;;9175077;19;20010;-73
2024/02/05 00:49:54;;;;;;;47.13;4.78;;;12.20;89.40;;;;;;9180607;19;20039;-74
2024/02/05 00:53:02;;;;;;;28.75;4.22;;;12.10;89.20;;;;;;9175834;19;20010;-73
2024/02/05 00:56:08;;;;;;;25.17;5.00;;;12.20;89.40;;;;;;9177133;19;20026;-73
2024/02/05 00:59:35;;;;;;;23.25;3.85;;;12.20;89.10;;;;;;9176858;19;20014;-73
2024/02/05 01:02:44;;;;;;;20.73;4.72;;;12.20;89.10;;;;;;9174203;19;20019;-73
2024/02/05 01:05:51;;;;;;;29.73;4.43;;;12.20;88.90;;;;;;9178805;19;20104;-74
2024/02/05 01:09:04;;;;;;;28.40;4.72;;;12.30;89.00;;;;;;9174962;19;20021;-73
2024/02/05 01:12:12;;;;;;;25.45;4.13;;;12.20;89.10;;;;;;9176072;19;20024;-73
2024/02/05 01:15:19;;;;;;;25.30;3.65;;;12.30;89.10;;;;;;9177340;19;20650;-73
2024/02/05 01:18:29;;;;;;;25.88;4.15;;;12.20;89.10;;;;;;9174455;19;20006;-73
2024/02/05 01:21:35;;;;;;;33.42;6.22;;;12.20;88.90;;;;;;9169284;19;20333;-73
2024/02/05 01:24:42;;;;;;;28.45;4.43;;;12.20;88.80;;;;;;9175007;19;20022;-74
2024/02/05 01:27:48;;;;;;;19.23;3.38;;;12.20;88.60;;;;;;9178286;19;20017;-74
2024/02/05 01:30:57;;;;;;;27.23;4.13;;;12.20;88.60;;;;;;9174472;19;20643;-73
2024/02/05 01:34:05;;;;;;;37.88;4.32;;;12.20;88.70;;;;;;9176108;19;20026;-73
2024/02/05 01:37:13;;;;;;;33.85;5.28;;;12.20;88.60;;;;;;9175543;19;20529;-73
2024/02/05 01:40:19;;;;;;;31.42;4.45;;;12.20;88.50;;;;;;9174214;19;20095;-73
2024/02/05 01:43:26;;;;;;;22.23;3.78;;;12.20;88.50;;;;;;9173840;19;20025;-74
2024/02/05 01:46:35;;;;;;;26.88;4.10;;;12.20;88.50;;;;;;9173349;19;20010;-73
2024/02/05 01:49:47;;;;;;;25.70;3.33;;;12.20;88.50;;;;;;9173085;19;20126;-74
2024/02/05 01:52:54;;;;;;;23.55;4.40;;;12.30;88.70;;;;;;9175556;19;20017;-73
2024/02/05 01:56:01;;;;;;;26.25;3.72;;;12.20;88.40;;;;;;9175531;19;20018;-73
2024/02/05 01:59:10;;;;;;;25.35;4.43;;;12.30;88.40;;;;;;9174628;19;20022;-73
2024/02/05 02:02:18;;;;;;;33.65;5.18;;;12.20;88.20;;;;;;9173045;19;20357;-73
2024/02/05 02:05:27;;;;;;;26.60;4.78;;;12.20;88.20;;;;;;9174422;19;20130;-73
2024/02/05 02:08:35;;;;;;;24.63;5.30;;;12.20;88.20;;;;;;9169723;19;20019;-73
2024/02/05 02:11:42;;;;;;;34.63;5.32;;;12.20;88.10;;;;;;9174757;19;20048;-73
2024/02/05 02:14:49;;;;;;;23.80;4.93;;;12.20;88.00;;;;;;9171858;19;20010;-74
2024/02/05 02:17:58;;;;;;;34.42;5.63;;;12.20;88.00;;;;;;9173018;19;20026;-73
2024/02/05 02:21:21;;;;;;;27.63;4.80;;;12.20;88.10;;;;;;9171762;19;20003;-74
2024/02/05 02:24:30;;;;;;;31.80;6.38;;;12.20;88.00;;;;;;9173069;19;20014;-74
2024/02/05 02:27:37;;;;;;;37.55;4.57;;;12.20;87.90;;;;;;9172459;19;20022;-74
2024/02/05 02:30:43;;;;;;;36.88;5.70;;;12.20;88.00;;;;;;9176339;19;20010;-74
2024/02/05 02:33:56;;;;;;;28.23;5.20;;;12.10;87.80;;;;;;9172268;19;20468;-73
2024/02/05 02:37:05;;;;;;;33.03;4.65;;;12.20;87.70;;;;;;9174711;19;20010;-73
2024/02/05 02:40:20;;;;;;;33.58;5.22;;;12.10;87.70;;;;;;9174672;19;20017;-73
2024/02/05 02:43:28;;;;;;;28.45;4.93;;;12.10;88.40;;;;;;9175955;19;20077;-73
2024/02/05 02:46:35;;;;;;;28.88;5.15;;;12.20;87.70;;;;;;9173269;19;20025;-73
2024/02/05 02:49:41;;;;;;;21.25;4.70;;;12.00;87.60;;;;;;9173628;19;20107;-73
2024/02/05 02:52:52;;;;;;;36.92;5.72;;;12.10;87.60;;;;;;9171498;19;20018;-73
2024/02/05 02:56:00;;;;;;;33.50;6.47;;;12.10;87.60;;;;;;9171858;19;20035;-73
2024/02/05 02:59:09;;;;;;;34.40;5.88;;;12.00;87.50;;;;;;9173510;19;20015;-73
2024/02/05 03:02:15;;;;;;;33.05;5.63;;;12.10;87.60;;;;;;9174116;19;20019;-73
2024/02/05 03:05:23;;;;;;;36.17;5.38;;;12.00;87.60;;;;;;9170693;19;20011;-74
2024/02/05 03:08:28;;;;;;;43.08;4.85;;;12.10;87.70;;;;;;9167967;19;20467;-73
2024/02/05 03:11:39;;;;;;;38.20;6.13;;;12.00;87.50;;;;;;9172337;19;20096;-74
2024/02/05 03:14:45;;;;;;;34.20;4.60;;;12.00;87.50;;;;;;9170736;19;20011;-73
2024/02/05 03:17:53;;;;;;;38.00;6.00;;;12.00;87.50;;;;;;9168902;19;20006;-73
2024/02/05 03:20:58;;;;;;;44.35;6.20;;;12.00;87.50;;;;;;9174306;19;20846;-74
2024/02/05 03:24:06;;;;;;;26.30;4.85;;;12.00;87.40;;;;;;9169379;19;20021;-73
2024/02/05 03:27:14;;;;;;;31.38;5.13;;;11.90;87.50;;;;;;9170294;19;20014;-73
2024/02/05 03:30:21;;;;;;;33.13;4.07;;;12.00;88.30;;;;;;9168906;19;20479;-73
2024/02/05 03:33:27;;;;;;;22.40;4.82;;;11.90;87.50;;;;;;9171568;19;20026;-73
2024/02/05 03:36:35;;;;;;;38.47;5.97;;;11.90;87.30;;;;;;9172138;19;20018;-73
2024/02/05 03:39:41;;;;;;;33.85;5.90;;;12.00;87.40;;;;;;9169762;19;20011;-73
2024/02/05 03:42:52;;;;;;;23.80;4.32;;;11.90;87.30;;;;;;9171068;19;20014;-73
2024/02/05 03:45:58;;;;;;;27.20;5.45;;;11.90;87.30;;;;;;9167472;19;20022;-73
2024/02/05 03:49:05;;;;;;;29.40;4.43;;;11.80;87.30;;;;;;9166850;19;20078;-72
2024/02/05 03:52:11;;;;;;;23.70;5.80;;;11.90;87.30;;;;;;9171493;19;20019;-73
2024/02/05 03:55:19;;;;;;;35.50;6.05;;;11.90;87.40;;;;;;9168680;19;20019;-73
2024/02/05 03:58:27;;;;;;;45.53;8.90;;;11.80;87.20;;;;;;9169441;19;20050;-74
2024/02/05 04:01:35;;;;;;;36.42;7.20;;;11.80;87.30;;;;;;9171794;19;20019;-73
2024/02/05 04:04:41;;;;;;;35.28;5.28;;;11.90;88.00;;;;;;9174521;19;20014;-74
2024/02/05 04:07:49;;;;;;;23.13;4.07;;;11.80;87.30;;;;;;9178018;19;20014;-73
2024/02/05 04:10:56;;;;;;;32.75;5.63;;;11.80;87.30;;;;;;9175393;19;20017;-73
2024/02/05 04:14:06;;;;;;;27.50;4.03;;;11.70;87.20;;;;;;9176971;19;20021;-73
2024/02/05 04:17:12;;;;;;;32.38;5.35;;;11.80;87.30;;;;;;9179435;19;20018;-73
2024/02/05 04:20:19;;;;;;;28.25;5.50;;;11.80;87.20;;;;;;9179872;19;20014;-73
2024/02/05 04:23:27;;;;;;;34.38;6.38;;;11.80;87.30;;;;;;9173953;19;20019;-74
2024/02/05 04:26:35;;;;;;;40.30;6.53;;;11.80;87.20;;;;;;9179487;19;20045;-74
2024/02/05 04:29:43;;;;;;;38.38;4.85;;;11.80;87.10;;;;;;9179460;19;20015;-73
2024/02/05 04:32:51;;;;;;;36.03;5.80;;;11.70;87.00;;;;;;9177525;19;20020;-73
2024/02/05 04:35:56;;;;;;;43.42;5.93;;;11.80;87.10;;;;;;9180245;19;20514;-73
2024/02/05 04:39:10;;;;;;;46.55;5.57;;;11.70;86.90;;;;;;9177411;19;20495;-74
2024/02/05 04:42:17;;;;;;;32.15;5.38;;;11.70;87.40;;;;;;9176296;19;20467;-73
2024/02/05 04:45:27;;;;;;;36.97;6.22;;;11.70;87.20;;;;;;9180607;19;20503;-74
2024/02/05 04:48:33;;;;;;;30.10;4.80;;;11.70;87.00;;;;;;9177157;19;20023;-74
2024/02/05 04:51:40;;;;;;;35.42;5.90;;;11.70;87.10;;;;;;9173701;19;20003;-74
2024/02/05 04:54:46;;;;;;;29.90;5.22;;;11.60;87.00;;;;;;9178299;19;20021;-73
2024/02/05 04:57:53;;;;;;;24.30;4.78;;;11.60;87.10;;;;;;9178334;19;20019;-74
2024/02/05 05:01:01;;;;;;;35.35;5.93;;;11.60;87.00;;;;;;9176327;19;20051;-74
2024/02/05 05:04:12;;;;;;;41.53;6.07;;;11.60;87.00;;;;;;9177714;19;20020;-74
2024/02/05 05:07:18;;;;;;;40.72;7.35;;;11.60;86.90;;;;;;9177994;19;20017;-73
2024/02/05 05:10:26;;;;;;;29.17;5.97;;;11.60;87.10;;;;;;9175598;19;20018;-74
2024/02/05 05:13:34;;;;;;;34.40;6.47;;;11.60;87.00;;;;;;9176600;19;20019;-72
2024/02/05 05:16:44;;;;;;;37.78;5.20;;;11.60;87.00;;;;;;9177224;19;20018;-73
2024/02/05 05:19:50;;;;;;;33.70;5.97;;;11.60;87.00;;;;;;9176841;19;20349;-72
2024/02/05 05:22:58;;;;;;;39.67;6.07;;;11.60;87.40;;;;;;9169631;19;20010;-73
2024/02/05 05:26:03;;;;;;;25.48;4.57;;;11.50;87.10;;;;;;9176713;19;20040;-73
2024/02/05 05:29:11;;;;;;;27.30;5.63;;;11.50;87.10;;;;;;9175296;19;20015;-74
2024/02/05 05:32:19;;;;;;;35.05;5.40;;;11.50;86.90;;;;;;9173134;19;20023;-74
2024/02/05 05:35:26;;;;;;;34.67;4.30;;;11.40;87.00;;;;;;9175624;19;20018;-74
2024/02/05 05:38:32;;;;;;;26.33;4.90;;;11.50;86.80;;;;;;9171188;19;20138;-74
2024/02/05 05:41:40;;;;;;;34.08;5.60;;;11.50;87.00;;;;;;9174587;19;20495;-73
2024/02/05 05:44:45;;;;;;;41.17;5.45;;;11.40;86.80;;;;;;9178387;19;20021;-74
2024/02/05 05:47:55;;;;;;;31.48;5.32;;;11.40;86.80;;;;;;9172851;19;20011;-74
2024/02/05 05:51:01;;;;;;;32.97;6.68;;;11.50;87.00;;;;;;9175764;19;20042;-74
2024/02/05 05:54:11;;;;;;;31.83;5.03;;;11.50;86.70;;;;;;9175369;19;20006;-74
2024/02/05 05:57:17;;;;;;;31.67;5.35;;;11.50;86.80;;;;;;9172884;19;20018;-74
2024/02/05 06:00:25;;;;;;;35.25;5.90;;;11.50;86.60;;;;;;9176639;19;20670;-74
2024/02/05 06:03:33;;;;;;;25.10;4.82;;;11.40;86.50;;;;;;9176621;19;20015;-73
2024/02/05 06:06:41;;;;;;;31.17;5.78;;;11.40;86.60;;;;;;9174915;19;20027;-74
2024/02/05 06:09:47;;;;;;;45.13;5.90;;;11.40;86.70;;;;;;9171842;19;20015;-74
2024/02/05 06:12:55;;;;;;;25.08;4.43;;;11.30;86.50;;;;;;9172018;19;20010;-74
2024/02/05 06:16:00;;;;;;;36.72;5.03;;;11.30;86.60;;;;;;9176267;19;20365;-73
2024/02/05 06:19:10;;;;;;;39.35;5.68;;;11.30;86.50;;;;;;9171989;19;20006;-73
2024/02/05 06:22:16;;;;;;;23.08;4.93;;;11.30;86.50;;;;;;9171085;19;20018;-74
2024/02/05 06:25:24;;;;;;;40.05;6.18;;;11.40;86.80;;;;;;9174936;19;20014;-73
2024/02/05 06:28:30;;;;;;;26.60;4.97;;;11.30;86.50;;;;;;9172305;19;20053;-74
2024/02/05 06:31:38;;;;;;;37.05;6.47;;;11.30;86.50;;;;;;9174059;19;20014;-73
2024/02/05 06:34:49;;;;;;;39.95;4.97;;;11.30;86.60;;;;;;9173253;19;20525;-73
2024/02/05 06:37:57;;;;;;;40.25;6.10;;;11.30;86.40;;;;;;9173649;19;20017;-73
2024/02/05 06:41:03;;;;;;;35.90;5.35;;;11.20;86.30;;;;;;9172460;19;20607;-73
2024/02/05 06:44:11;;;;;;;34.63;5.95;;;11.20;86.30;;;;;;9173760;19;20019;-73
2024/02/05 06:47:16;;;;;;;31.00;5.45;;;11.30;86.40;;;;;;9172823;19;20038;-73
2024/02/05 06:50:26;;;;;;;24.50;5.07;;;11.20;86.50;;;;;;9171758;19;20010;-73
2024/02/05 06:53:32;;;;;;;27.15;5.40;;;11.20;86.30;;;;;;9173135;19;20022;-74
2024/02/05 06:56:39;;;;;;;35.38;5.30;;;11.20;86.30;;;;;;9172065;19;20504;-73
2024/02/05 06:59:45;;;;;;;38.45;5.03;;;11.20;86.30;;;;;;9172861;19;20018;-73
2024/02/05 07:02:52;;;;;;;29.33;4.50;;;11.20;86.30;;;;;;9170340;19;20014;-73
2024/02/05 07:06:01;;;;;;;35.67;5.63;;;11.20;86.20;;;;;;9171320;19;20030;-74
2024/02/05 07:09:08;;;;;;;24.52;5.30;;;11.20;86.20;;;;;;9162180;19;20030;-72
2024/02/05 07:12:14;;;;;;;35.00;6.35;;;11.10;86.20;;;;;;9170969;19;20792;-74
2024/02/05 07:15:21;;;;;;;27.13;5.68;;;11.10;86.10;;;;;;9172451;19;20007;-73
2024/02/05 07:18:27;;;;;;;38.55;5.03;;;11.10;86.20;;;;;;9175066;19;20027;-73
2024/02/05 07:21:37;;;;;;;38.60;5.28;;;11.20;86.20;;;;;;9170165;19;20900;-73
2024/02/05 07:24:46;;;;;;;34.35;5.10;;;11.10;86.10;;;;;;9175079;19;20478;-73
2024/02/05 07:27:54;;;;;;;32.08;6.05;;;11.20;86.10;;;;;;9174262;19;20014;-74
2024/02/05 07:31:00;;;;;;;33.85;4.82;;;11.10;86.00;;;;;;9171675;19;20007;-73
2024/02/05 07:34:08;;;;;;;35.88;4.90;;;11.10;86.00;;;;;;9171635;19;20015;-73
2024/02/05 07:37:16;;;;;;;29.42;5.43;;;11.10;86.10;;;;;;9173701;19;20018;-74
2024/02/05 07:40:24;;;;;;;25.08;4.88;;;11.00;85.90;;;;;;9180960;19;20011;-74
2024/02/05 07:43:29;;;;;;;38.80;5.32;;;11.20;86.50;;;;;;9181261;19;20014;-73
2024/02/05 07:46:37;;;;;;;30.77;5.85;;;11.00;86.00;;;;;;9178799;19;20017;-74
2024/02/05 07:49:43;;;;;;;39.58;5.50;;;11.00;85.90;;;;;;9181199;19;20417;-74
2024/02/05 07:52:53;;;;;;;29.38;6.75;;;11.10;86.00;;;;;;9177801;19;20491;-74
2024/02/05 07:55:59;;;;;;;30.33;5.50;;;11.00;85.90;;;;;;9180414;19;20017;-73
2024/02/05 07:59:06;;;;;;;34.42;5.90;;;11.00;85.90;;;;;;9182748;19;20022;-73
2024/02/05 08:02:12;;;;;;;26.33;6.35;;;11.00;86.00;;;;;;9181275;19;20517;-73
2024/02/05 08:05:20;;;;;;;31.52;5.45;;;11.10;85.90;;;;;;9181443;19;20018;-73
2024/02/05 08:08:29;;;;;;;31.67;5.82;;;11.00;85.80;;;;;;9179521;19;20010;-73
2024/02/05 08:11:36;;;;;;;22.77;4.90;;;11.00;85.80;;;;;;9182219;19;20010;-74
2024/02/05 08:14:42;;;;;;;27.30;5.03;;;11.00;86.00;;;;;;9180993;19;20022;-73
2024/02/05 08:17:49;;;;;;;33.17;5.65;;;11.00;86.30;;;;;;9180674;19;20021;-73
2024/02/05 08:20:55;;;;;;;38.88;5.45;;;11.00;85.70;;;;;;9180135;19;20369;-75
2024/02/05 08:24:05;;;;;;;27.90;4.65;;;10.90;85.70;;;;;;9175977;19;20025;-73
2024/02/05 08:27:11;;;;;;;33.22;5.22;;;11.00;85.70;;;;;;9177089;19;20046;-74
2024/02/05 08:30:19;;;;;;;34.63;5.85;;;10.90;85.80;;;;;;9181310;19;20015;-73
2024/02/05 08:33:24;;;;;;;31.80;5.13;;;11.00;85.90;;;;;;9176278;19;20430;-74
2024/02/05 08:36:33;;;;;;;40.20;6.93;;;11.00;85.70;;;;;;9180819;19;20025;-74
2024/02/05 08:39:41;;;;;;;37.97;7.05;;;11.00;85.80;;;;;;9180523;19;20018;-74
2024/02/05 08:42:49;;;;;;;25.48;5.30;;;11.00;85.70;;;;;;9180392;19;20034;-74
2024/02/05 08:45:54;;;;;;;36.00;5.90;;;11.00;85.70;;;;;;9177843;19;20018;-74
2024/02/05 08:49:02;;;;;;;32.28;4.78;;;11.00;85.60;;;;;;9179721;19;20018;-74
2024/02/05 08:52:08;;;;;;;31.85;4.90;;;10.90;85.70;;;;;;9177390;19;20104;-74
2024/02/05 08:55:18;;;;;;;32.75;4.55;;;11.00;85.80;;;;;;9178152;19;20037;-74
2024/02/05 08:58:24;;;;;;;22.27;5.40;;;10.90;85.60;;;;;;9179355;19;20014;-73
2024/02/05 09:01:32;;;;;;;29.23;5.47;;;10.90;85.80;;;;;;9177322;19;20023;-74
2024/02/05 09:04:38;;;;;;;33.17;6.60;;;10.90;85.60;;;;;;9180343;19;20381;-74
2024/02/05 09:07:46;;;;;;;28.63;4.85;;;11.00;85.80;;;;;;9176799;19;20011;-74
2024/02/05 09:10:54;;;;;;;30.75;6.47;;;11.00;85.50;;;;;;9180111;19;20011;-74
2024/02/05 09:14:02;;;;;;;39.78;6.50;;;11.00;85.50;;;;;;9175627;19;20468;-74
2024/02/05 09:17:07;;;;;;;26.85;4.40;;;11.00;85.70;;;;;;9178196;19;20630;-73
2024/02/05 09:20:15;;;;;;;35.75;5.40;;;11.00;85.60;;;;;;9180151;19;20380;-68
2024/02/05 09:23:21;;;;;;;33.45;5.78;;;11.00;85.60;;;;;;9170980;19;20022;-67
2024/02/05 09:26:31;;;;;;;30.25;5.72;;;11.00;85.70;;;;;;9178253;19;20046;-69
2024/02/05 09:29:37;;;;;;;29.58;6.55;;;11.00;85.50;;;;;;9173980;19;20503;-69
2024/02/05 09:32:45;;;;;;;37.53;6.35;;;11.00;85.70;;;;;;9175838;19;20015;-70
2024/02/05 09:35:51;;;;;;;37.60;6.20;;;11.00;85.40;;;;;;9178368;19;20011;-68
2024/02/05 09:38:58;;;;;;;31.27;5.72;;;11.00;85.50;;;;;;9178422;19;20018;-68
2024/02/05 09:42:12;;;;;;;27.88;5.30;;;11.10;85.70;;;;;;9176951;19;20007;-69
2024/02/05 09:45:21;;;;;;;31.85;5.47;;;11.10;85.70;;;;;;9178551;19;20022;-68
2024/02/05 09:48:27;;;;;;;31.48;5.88;;;11.00;85.60;;;;;;9177310;19;20015;-69
2024/02/05 09:51:47;;;;;;;27.75;5.05;;;11.10;85.70;;;;;;9176917;19;20022;-68
2024/02/05 09:54:56;;;;;;;26.38;6.10;;;11.10;85.70;;;;;;9175355;19;20564;-71
2024/02/05 09:58:07;;;;;;;32.67;5.60;;;11.20;85.60;;;;;;9175411;19;20022;-72
2024/02/05 10:01:16;;;;;;;35.10;6.22;;;11.10;85.50;;;;;;9176413;19;20018;-71
2024/02/05 10:04:27;;;;;;;30.48;5.28;;;11.20;85.60;;;;;;9178204;19;20011;-70
2024/02/05 10:07:34;;;;;;;34.40;6.15;;;11.20;85.40;;;;;;9176043;19;20022;-71
2024/02/05 10:10:46;;;;;;;28.90;6.55;;;11.10;85.40;;;;;;9177670;19;20059;-72
2024/02/05 10:13:55;;;;;;;44.47;6.72;;;11.20;85.50;;;;;;9174154;19;20011;-71
2024/02/05 10:17:03;;;;;;;35.55;6.63;;;11.10;85.50;;;;;;9174979;19;20014;-71
2024/02/05 10:20:12;;;;;;;38.10;6.18;;;11.20;85.40;;;;;;9175575;19;20029;-71
2024/02/05 10:23:20;;;;;;;36.67;7.68;;;11.20;85.60;;;;;;9172673;19;20010;-70
2024/02/05 10:26:30;;;;;;;27.42;6.18;;;11.20;85.50;;;;;;9178000;19;20098;-73
2024/02/05 10:29:40;;;;;;;35.13;6.40;;;11.30;85.60;;;;;;9176091;19;20367;-70
2024/02/05 10:32:46;;;;;;;41.55;6.78;;;11.30;85.50;;;;;;9174683;19;20015;-70
2024/02/05 10:35:56;;;;;;;38.03;5.57;;;11.40;85.60;;;;;;9172990;19;20029;-70
2024/02/05 10:39:05;;;;;;;39.25;5.68;;;11.50;85.40;;;;;;9176494;19;20048;-71
2024/02/05 10:42:15;;;;;;;30.77;6.00;;;11.30;85.40;;;;;;9173622;19;20011;-70
2024/02/05 10:45:23;;;;;;;30.50;5.60;;;11.40;85.30;;;;;;9175884;19;20018;-70
2024/02/05 10:48:31;;;;;;;24.92;5.10;;;11.40;85.40;;;;;;9174695;19;20480;-70
2024/02/05 10:51:39;;;;;;;33.15;5.30;;;11.50;85.20;;;;;;9175985;19;20413;-71
2024/02/05 10:54:49;;;;;;;29.73;4.65;;;11.30;84.90;;;;;;9173595;19;20011;-71
2024/02/05 10:57:55;;;;;;;26.52;5.50;;;11.40;84.90;;;;;;9176953;19;20506;-71
2024/02/05 11:01:07;;;;;;;38.15;5.72;;;11.30;84.90;;;;;;9175248;19;20025;-71
2024/02/05 11:04:14;;;;;;;34.17;5.63;;;11.30;85.10;;;;;;9175955;19;20091;-71
2024/02/05 11:07:24;;;;;;;31.65;5.47;;;11.40;85.10;;;;;;9174619;19;20023;-70
2024/02/05 11:10:32;;;;;;;31.80;5.32;;;11.30;85.00;;;;;;9174446;19;20010;-71
2024/02/05 11:13:47;;;;;;;31.63;5.03;;;11.30;84.80;;;;;;9169219;19;20484;-71
2024/02/05 11:16:56;;;;;;;31.88;5.30;;;11.40;84.90;;;;;;9174994;19;20010;-71
2024/02/05 11:20:04;;;;;;;29.83;5.13;;;11.30;84.80;;;;;;9173150;19;20026;-71
2024/02/05 11:23:10;;;;;;;25.83;4.88;;;11.30;84.80;;;;;;9168493;19;20464;-72
2024/02/05 11:26:18;;;;;;;28.75;4.95;;;11.40;84.80;;;;;;9173778;19;20014;-71
2024/02/05 11:29:24;;;;;;;30.50;5.30;;;11.40;84.80;;;;;;9173229;19;20019;-70
2024/02/05 11:32:36;;;;;;;22.52;5.55;;;11.40;84.90;;;;;;9171811;19;20018;-72
2024/02/05 11:35:50;;;;;;;42.00;6.50;;;11.40;85.00;;;;;;9170625;19;20472;-71
2024/02/05 11:39:04;;;;;;;25.60;6.88;;;11.50;84.80;;;;;;9174167;19;20022;-72
2024/02/05 11:42:10;;;;;;;25.95;5.53;;;11.40;84.60;;;;;;9172203;19;20021;-72
2024/02/05 11:45:17;;;;;;;28.83;6.32;;;11.50;84.90;;;;;;9172255;19;20051;-71
2024/02/05 11:48:27;;;;;;;38.72;7.55;;;11.50;84.80;;;;;;9174135;19;20037;-70
2024/02/05 11:51:35;;;;;;;36.50;6.82;;;11.50;84.60;;;;;;9173092;19;20033;-71
2024/02/05 11:54:42;;;;;;;29.40;7.40;;;11.50;84.60;;;;;;9171226;19;20452;-71
2024/02/05 11:57:51;;;;;;;28.58;6.18;;;11.50;84.40;;;;;;9172110;19;20037;-71
2024/02/05 12:00:57;;;;;;;33.75;8.27;;;11.50;84.80;;;;;;9172050;19;20373;-70
2024/02/05 12:04:08;;;;;;;36.75;7.55;;;11.50;84.50;;;;;;9171828;19;20026;-70
2024/02/05 12:07:15;;;;;;;34.75;7.53;;;11.60;84.60;;;;;;9172803;19;20018;-71
2024/02/05 12:10:23;;;;;;;25.92;5.93;;;11.60;84.60;;;;;;9172884;19;20018;-71
2024/02/05 12:13:33;;;;;;;37.08;7.43;;;11.60;84.30;;;;;;9172924;19;20022;-71
2024/02/05 12:16:42;;;;;;;30.85;7.13;;;11.50;84.20;;;;;;9173095;19;20025;-71
2024/02/05 12:19:50;;;;;;;35.17;6.57;;;11.60;84.10;;;;;;9171817;19;20018;-70
2024/02/05 12:22:58;;;;;;;26.55;6.18;;;11.60;84.10;;;;;;9168946;19;20030;-70
2024/02/05 12:26:04;;;;;;;39.75;7.55;;;11.60;84.10;;;;;;9176828;19;20048;-70
2024/02/05 12:29:25;;;;;;;25.80;5.88;;;11.70;84.40;;;;;;9181149;19;20033;-72
2024/02/05 12:32:30;;;;;;;29.80;7.22;;;11.70;84.10;;;;;;9181303;19;20049;-71
2024/02/05 12:36:02;;;;;;;33.65;5.88;;;11.70;84.20;;;;;;9179214;19;20530;-72
2024/02/05 12:39:09;;;;;;;21.13;5.10;;;11.60;84.00;;;;;;9179597;19;20021;-72
2024/02/05 12:42:17;;;;;;;21.40;5.55;;;11.60;84.00;;;;;;9181132;19;20018;-71
2024/02/05 12:45:23;;;;;;;27.23;6.32;;;11.70;84.20;;;;;;9180640;19;20025;-71
2024/02/05 12:48:31;;;;;;;29.52;5.65;;;11.60;83.90;;;;;;9180894;19;20020;-71
2024/02/05 12:51:41;;;;;;;36.67;5.38;;;11.80;84.00;;;;;;9181103;19;20078;-71
2024/02/05 12:54:48;;;;;;;24.25;5.00;;;11.80;83.90;;;;;;9177913;19;20025;-71
2024/02/05 12:57:54;;;;;;;35.28;7.60;;;11.70;83.90;;;;;;9175822;19;20019;-71
2024/02/05 13:01:02;;;;;;;17.85;5.53;;;11.60;83.80;;;;;;9174995;19;20010;-71
2024/02/05 13:04:10;;;;;;;39.42;5.50;;;11.70;83.90;;;;;;9177919;19;20023;-71
2024/02/05 13:07:22;;;;;;;29.40;5.93;;;11.70;84.10;;;;;;9174797;19;20433;-71
2024/02/05 13:10:29;;;;;;;27.67;5.47;;;11.70;83.60;;;;;;9177222;19;20022;-72
2024/02/05 13:13:36;;;;;;;28.58;6.00;;;11.70;84.30;;;;;;9178143;19;20014;-71
2024/02/05 13:16:43;;;;;;;25.52;5.93;;;11.70;84.50;;;;;;9174909;19;20030;-71
2024/02/05 13:19:51;;;;;;;29.85;5.72;;;11.70;83.60;;;;;;9176942;19;20393;-73
2024/02/05 13:22:59;;;;;;;29.67;4.60;;;11.80;83.60;;;;;;9174170;19;20025;-71
2024/02/05 13:26:07;;;;;;;29.38;5.85;;;11.70;83.40;;;;;;9173638;19;20029;-70
2024/02/05 13:29:12;;;;;;;31.08;5.13;;;11.70;83.50;;;;;;9176983;19;20537;-71
2024/02/05 13:32:20;;;;;;;29.63;5.80;;;11.80;83.60;;;;;;9175657;19;20014;-71
2024/02/05 13:35:26;;;;;;;33.28;6.13;;;11.70;83.50;;;;;;9174347;19;20086;-71
2024/02/05 13:38:36;;;;;;;25.80;6.05;;;11.70;83.50;;;;;;9178390;19;20022;-72
2024/02/05 13:41:42;;;;;;;32.80;5.57;;;11.80;83.50;;;;;;9176717;19;20010;-72
2024/02/05 13:44:51;;;;;;;34.60;6.40;;;11.80;83.70;;;;;;9179010;19;20018;-72
2024/02/05 13:47:56;;;;;;;24.63;5.30;;;11.80;83.80;;;;;;9178585;19;20010;-71
2024/02/05 13:51:04;;;;;;;25.88;5.03;;;11.80;84.10;;;;;;9176670;19;20488;-72
2024/02/05 13:54:12;;;;;;;31.73;6.95;;;12.00;83.80;;;;;;9178664;19;20019;-72
2024/02/05 13:57:20;;;;;;;18.73;4.90;;;11.80;83.60;;;;;;9176907;19;20014;-71
2024/02/05 14:00:26;;;;;;;26.30;6.47;;;11.90;83.60;;;;;;9176235;19;20453;-71
2024/02/05 14:03:33;;;;;;;31.15;6.45;;;11.80;83.60;;;;;;9177278;19;20021;-71
2024/02/05 14:06:39;;;;;;;26.73;5.18;;;11.80;83.50;;;;;;9175005;19;20025;-71
2024/02/05 14:09:49;;;;;;;49.22;5.75;;;11.80;83.20;;;;;;9177444;19;20006;-72
2024/02/05 14:12:57;;;;;;;26.17;5.72;;;11.90;83.30;;;;;;9177579;19;20366;-72
2024/02/05 14:16:05;;;;;;;33.25;5.50;;;11.80;83.20;;;;;;9174706;19;20030;-71
2024/02/05 14:19:11;;;;;;;30.83;5.63;;;11.80;83.40;;;;;;9177521;19;20022;-71
2024/02/05 14:22:19;;;;;;;25.98;5.20;;;11.90;83.70;;;;;;9172269;19;20014;-72
2024/02/05 14:25:27;;;;;;;34.85;5.25;;;11.90;83.50;;;;;;9177187;19;20810;-73
2024/02/05 14:28:36;;;;;;;23.15;5.75;;;11.90;83.40;;;;;;9176241;19;20014;-73
2024/02/05 14:31:42;;;;;;;40.22;7.15;;;11.90;83.30;;;;;;9175965;19;20042;-71
2024/02/05 14:34:49;;;;;;;51.30;7.22;;;11.90;83.30;;;;;;9176231;19;20019;-71
2024/02/05 14:37:55;;;;;;;26.35;5.25;;;12.00;83.40;;;;;;9173081;19;20014;-72
2024/02/05 14:41:06;;;;;;;23.45;5.70;;;11.90;83.50;;;;;;9174223;19;20034;-72
2024/02/05 14:44:11;;;;;;;29.85;5.80;;;11.90;83.10;;;;;;9177307;19;20368;-72
2024/02/05 14:47:19;;;;;;;26.40;5.68;;;11.90;83.20;;;;;;9174699;19;20026;-72
2024/02/05 14:50:25;;;;;;;29.17;5.78;;;12.00;83.20;;;;;;9178166;19;20010;-72
2024/02/05 14:53:32;;;;;;;38.72;5.35;;;12.00;83.40;;;;;;9177486;19;20492;-71
2024/02/05 14:56:41;;;;;;;24.17;5.20;;;11.90;83.00;;;;;;9178107;19;20070;-71
2024/02/05 14:59:49;;;;;;;29.65;5.60;;;11.90;82.90;;;;;;9176585;19;20014;-71
2024/02/05 15:02:54;;;;;;;27.85;4.22;;;11.90;83.00;;;;;;9176893;19;20017;-71
2024/02/05 15:06:03;;;;;;;39.47;7.05;;;11.90;82.90;;;;;;9174933;19;20025;-71
2024/02/05 15:09:11;;;;;;;29.65;5.40;;;11.90;82.90;;;;;;9173425;19;20018;-70
2024/02/05 15:12:21;;;;;;;36.08;6.38;;;11.90;83.00;;;;;;9173196;19;20018;-71
2024/02/05 15:15:27;;;;;;;21.85;4.93;;;11.80;82.80;;;;;;9170997;19;20015;-71
2024/02/05 15:18:38;;;;;;;29.85;5.22;;;11.80;82.80;;;;;;9172345;19;20642;-70
2024/02/05 15:21:44;;;;;;;31.77;5.07;;;11.90;82.90;;;;;;9169333;19;20536;-71
2024/02/05 15:24:52;;;;;;;19.30;4.00;;;11.90;82.90;;;;;;9172493;19;20979;-71
2024/02/05 15:28:01;;;;;;;31.27;5.03;;;11.80;82.70;;;;;;9173528;19;20022;-70
2024/02/05 15:31:10;;;;;;;28.92;5.85;;;11.90;83.00;;;;;;9170087;19;20019;-71
2024/02/05 15:34:16;;;;;;;22.65;5.50;;;11.80;82.90;;;;;;9172304;19;20018;-71
2024/02/05 15:37:23;;;;;;;26.05;5.82;;;11.80;83.00;;;;;;9170346;19;20491;-71
2024/02/05 15:40:29;;;;;;;32.25;4.55;;;11.80;82.60;;;;;;9172450;19;20026;-71
2024/02/05 15:43:39;;;;;;;28.35;6.78;;;11.80;82.90;;;;;;9172182;19;20022;-71
2024/02/05 15:46:45;;;;;;;21.45;4.05;;;11.80;82.70;;;;;;9172481;19;20736;-71
2024/02/05 15:49:52;;;;;;;21.60;5.22;;;11.80;82.60;;;;;;9174937;19;20029;-71
2024/02/05 15:52:59;;;;;;;27.45;4.63;;;11.80;82.80;;;;;;9172296;19;20377;-71
2024/02/05 15:56:07;;;;;;;16.55;4.22;;;11.70;82.50;;;;;;9171630;19;20018;-71
2024/02/05 15:59:15;;;;;;;29.92;6.13;;;11.80;82.80;;;;;;9175491;19;20086;-72
2024/02/05 16:02:23;;;;;;;21.60;4.53;;;11.70;82.60;;;;;;9182888;19;20019;-72
2024/02/05 16:05:30;;;;;;;22.05;4.60;;;11.80;82.80;;;;;;9182690;19;20040;-71